createdAt,value
2016-12-24T00:00:33.882Z,1020.56
2016-12-24T00:01:42.558Z,1020.54
2016-12-24T00:02:52.161Z,1020.5
2016-12-24T00:04:00.846Z,1020.51
2016-12-24T00:05:09.837Z,1020.47
2016-12-24T00:06:19.788Z,1020.44
2016-12-24T00:07:28.788Z,1020.4
2016-12-24T00:08:38.086Z,1020.39
2016-12-24T00:09:48.016Z,1020.32
2016-12-24T00:10:57.032Z,1020.25
2016-12-24T00:12:05.821Z,1020.28
2016-12-24T00:13:14.515Z,1020.24
2016-12-24T00:14:23.509Z,1020.15
2016-12-24T00:15:32.512Z,1020.14
2016-12-24T00:16:41.213Z,1020.15
2016-12-24T00:17:50.855Z,1020.14
2016-12-24T00:19:00.470Z,1020.13
2016-12-24T00:20:09.472Z,1020.11
2016-12-24T00:21:18.787Z,1020.11
2016-12-24T00:22:27.787Z,1020.05
2016-12-24T00:23:37.386Z,1020.02
2016-12-24T00:24:46.385Z,1020.02
2016-12-24T00:25:55.371Z,1020.01
2016-12-24T00:27:04.371Z,1020.03
2016-12-24T00:28:13.692Z,1019.99
2016-12-24T00:29:22.989Z,1019.97
2016-12-24T00:30:31.979Z,1019.98
2016-12-24T00:31:40.971Z,1020.01
2016-12-24T00:32:49.657Z,1019.98
2016-12-24T00:33:58.651Z,1019.99
2016-12-24T00:35:08.258Z,1019.98
2016-12-24T00:36:17.864Z,1019.91
2016-12-24T00:37:26.864Z,1019.92
2016-12-24T00:38:35.858Z,1019.97
2016-12-24T00:39:44.845Z,1020.04
2016-12-24T00:40:53.838Z,1020.02
2016-12-24T00:42:02.836Z,1020.02
2016-12-24T00:43:11.833Z,1019.98
2016-12-24T00:44:20.524Z,1019.95
2016-12-24T00:45:29.517Z,1019.92
2016-12-24T00:46:38.199Z,1019.86
2016-12-24T00:47:47.497Z,1019.86
2016-12-24T00:48:56.189Z,1019.82
2016-12-24T00:50:05.182Z,1019.82
2016-12-24T00:51:14.488Z,1019.8
2016-12-24T00:52:24.105Z,1019.77
2016-12-24T00:53:33.405Z,1019.78
2016-12-24T00:54:42.402Z,1019.79
2016-12-24T00:55:51.409Z,1019.73
2016-12-24T00:57:00.408Z,1019.76
2016-12-24T00:58:10.009Z,1019.82
2016-12-24T00:59:19.009Z,1019.78
2016-12-24T01:00:28.007Z,1019.83
2016-12-24T01:01:36.993Z,1019.84
2016-12-24T01:02:45.692Z,1019.8
2016-12-24T01:03:54.530Z,1019.84
2016-12-24T01:05:03.527Z,1019.89
2016-12-24T01:06:12.522Z,1019.86
2016-12-24T01:07:21.231Z,1019.88
2016-12-24T01:08:30.624Z,1019.89
2016-12-24T01:09:40.222Z,1019.9
2016-12-24T01:10:49.852Z,1019.95
2016-12-24T01:11:58.548Z,1019.94
2016-12-24T01:13:07.856Z,1020.01
2016-12-24T01:14:17.169Z,1020.04
2016-12-24T01:15:26.631Z,1020.06
2016-12-24T01:16:35.686Z,1020.09
2016-12-24T01:17:44.994Z,1020.1
2016-12-24T01:18:54.299Z,1020.12
2016-12-24T01:20:03.292Z,1020.15
2016-12-24T01:21:12.599Z,1020.14
2016-12-24T01:22:21.903Z,1020.14
2016-12-24T01:23:30.599Z,1020.13
2016-12-24T01:24:39.901Z,1020.09
2016-12-24T01:25:49.208Z,1020.15
2016-12-24T01:26:58.306Z,1020.1
2016-12-24T01:28:07.307Z,1020.13
2016-12-24T01:29:16.607Z,1020.12
2016-12-24T01:30:25.610Z,1020.13
2016-12-24T01:31:34.914Z,1020.17
2016-12-24T01:32:43.761Z,1020.12
2016-12-24T01:33:52.756Z,1020.13
2016-12-24T01:35:02.063Z,1020.1
2016-12-24T01:36:11.054Z,1020.09
2016-12-24T01:37:19.755Z,1020.1
2016-12-24T01:38:28.614Z,1020.11
2016-12-24T01:39:37.616Z,1020.09
2016-12-24T01:40:46.609Z,1020.1
2016-12-24T01:41:55.627Z,1020.03
2016-12-24T01:43:04.942Z,1020.07
2016-12-24T01:44:14.088Z,1020.09
2016-12-24T01:45:23.081Z,1020.05
2016-12-24T01:46:32.086Z,1020.05
2016-12-24T01:47:40.779Z,1020.07
2016-12-24T01:48:49.795Z,1020.07
2016-12-24T01:49:58.639Z,1020.04
2016-12-24T01:51:07.321Z,1020.07
2016-12-24T01:52:17.030Z,1020.01
2016-12-24T01:53:26.026Z,1020.04
2016-12-24T01:54:35.640Z,1020.07
2016-12-24T01:55:44.333Z,1020.08
2016-12-24T01:56:53.323Z,1020.06
2016-12-24T01:58:02.324Z,1020.05
2016-12-24T01:59:11.018Z,1020.01
2016-12-24T02:00:19.706Z,1020.05
2016-12-24T02:01:29.359Z,1020.03
2016-12-24T02:02:38.659Z,1020.08
2016-12-24T02:03:47.348Z,1020.04
2016-12-24T02:04:56.094Z,1020.09
2016-12-24T02:06:05.702Z,1020.06
2016-12-24T02:07:15.389Z,1020.09
2016-12-24T02:08:24.080Z,1020.09
2016-12-24T02:09:33.069Z,1020.04
2016-12-24T02:10:41.750Z,1020.06
2016-12-24T02:11:51.349Z,1020.09
2016-12-24T02:13:00.426Z,1020.07
2016-12-24T02:14:09.420Z,1020.09
2016-12-24T02:15:18.730Z,1020.08
2016-12-24T02:16:27.418Z,1020.06
2016-12-24T02:17:36.419Z,1020.1
2016-12-24T02:18:46.354Z,1020.08
2016-12-24T02:19:55.340Z,1020.11
2016-12-24T02:21:04.334Z,1020.11
2016-12-24T02:22:13.016Z,1020.08
2016-12-24T02:23:22.014Z,1020.12
2016-12-24T02:24:30.805Z,1020.13
2016-12-24T02:25:40.131Z,1020.15
2016-12-24T02:26:48.827Z,1020.12
2016-12-24T02:27:58.169Z,1020.13
2016-12-24T02:29:07.789Z,1020.11
2016-12-24T02:30:16.568Z,1020.11
2016-12-24T02:31:25.883Z,1020.13
2016-12-24T02:32:35.271Z,1020.09
2016-12-24T02:33:45.192Z,1020.14
2016-12-24T02:34:54.230Z,1020.12
2016-12-24T02:36:03.527Z,1020.16
2016-12-24T02:37:12.221Z,1020.15
2016-12-24T02:38:21.538Z,1020.12
2016-12-24T02:39:30.530Z,1020.14
2016-12-24T02:40:39.218Z,1020.14
2016-12-24T02:41:48.367Z,1020.14
2016-12-24T02:42:57.359Z,1020.1
2016-12-24T02:44:06.356Z,1020.14
2016-12-24T02:45:15.347Z,1020.14
2016-12-24T02:46:24.656Z,1020.15
2016-12-24T02:47:33.343Z,1020.12
2016-12-24T02:48:42.345Z,1020.15
2016-12-24T02:49:51.325Z,1020.17
2016-12-24T02:51:00.320Z,1020.14
2016-12-24T02:52:09.331Z,1020.19
2016-12-24T02:53:18.751Z,1020.16
2016-12-24T02:54:27.760Z,1020.17
2016-12-24T02:55:36.755Z,1020.24
2016-12-24T02:56:45.753Z,1020.18
2016-12-24T02:57:55.394Z,1020.21
2016-12-24T02:59:04.189Z,1020.2
2016-12-24T03:00:13.180Z,1020.22
2016-12-24T03:01:22.186Z,1020.25
2016-12-24T03:02:31.198Z,1020.27
2016-12-24T03:03:40.825Z,1020.31
2016-12-24T03:04:49.979Z,1020.34
2016-12-24T03:05:59.308Z,1020.34
2016-12-24T03:07:08.305Z,1020.32
2016-12-24T03:08:17.303Z,1020.32
2016-12-24T03:09:26.310Z,1020.33
2016-12-24T03:10:35.313Z,1020.38
2016-12-24T03:11:43.998Z,1020.36
2016-12-24T03:12:52.998Z,1020.47
2016-12-24T03:14:02.031Z,1020.42
2016-12-24T03:15:11.333Z,1020.47
2016-12-24T03:16:20.482Z,1020.41
2016-12-24T03:17:29.472Z,1020.41
2016-12-24T03:18:38.183Z,1020.38
2016-12-24T03:19:47.182Z,1020.38
2016-12-24T03:20:56.507Z,1020.4
2016-12-24T03:22:06.471Z,1020.43
2016-12-24T03:23:15.149Z,1020.4
2016-12-24T03:24:23.849Z,1020.38
2016-12-24T03:25:33.149Z,1020.37
2016-12-24T03:26:42.445Z,1020.4
2016-12-24T03:27:52.089Z,1020.33
2016-12-24T03:29:01.393Z,1020.38
2016-12-24T03:30:10.697Z,1020.44
2016-12-24T03:31:20.002Z,1020.43
2016-12-24T03:32:28.998Z,1020.44
2016-12-24T03:33:38.920Z,1020.39
2016-12-24T03:34:47.602Z,1020.42
2016-12-24T03:35:56.280Z,1020.46
2016-12-24T03:37:05.000Z,1020.48
2016-12-24T03:38:14.645Z,1020.46
2016-12-24T03:39:23.655Z,1020.43
2016-12-24T03:40:32.661Z,1020.44
2016-12-24T03:41:41.963Z,1020.5
2016-12-24T03:42:51.270Z,1020.48
2016-12-24T03:43:59.966Z,1020.44
2016-12-24T03:45:09.592Z,1020.42
2016-12-24T03:46:18.275Z,1020.48
2016-12-24T03:47:27.597Z,1020.4
2016-12-24T03:48:36.604Z,1020.38
2016-12-24T03:49:45.593Z,1020.39
2016-12-24T03:50:54.948Z,1020.4
2016-12-24T03:52:03.945Z,1020.38
2016-12-24T03:53:12.928Z,1020.39
2016-12-24T03:54:21.609Z,1020.39
2016-12-24T03:55:30.288Z,1020.42
2016-12-24T03:56:39.596Z,1020.42
2016-12-24T03:57:48.590Z,1020.4
2016-12-24T03:58:57.576Z,1020.39
2016-12-24T04:00:06.274Z,1020.36
2016-12-24T04:01:14.969Z,1020.31
2016-12-24T04:02:24.099Z,1020.32
2016-12-24T04:03:32.779Z,1020.32
2016-12-24T04:04:42.075Z,1020.35
2016-12-24T04:05:51.074Z,1020.32
2016-12-24T04:07:00.075Z,1020.37
2016-12-24T04:08:09.084Z,1020.38
2016-12-24T04:09:18.398Z,1020.38
2016-12-24T04:10:27.392Z,1020.36
2016-12-24T04:11:36.076Z,1020.42
2016-12-24T04:12:45.075Z,1020.38
2016-12-24T04:13:54.231Z,1020.38
2016-12-24T04:15:02.927Z,1020.46
2016-12-24T04:16:11.617Z,1020.47
2016-12-24T04:17:20.309Z,1020.51
2016-12-24T04:18:29.000Z,1020.51
2016-12-24T04:19:38.354Z,1020.51
2016-12-24T04:20:47.346Z,1020.44
2016-12-24T04:21:56.025Z,1020.51
2016-12-24T04:23:05.317Z,1020.48
2016-12-24T04:24:14.012Z,1020.39
2016-12-24T04:25:23.046Z,1020.39
2016-12-24T04:26:32.075Z,1020.31
2016-12-24T04:27:40.768Z,1020.37
2016-12-24T04:28:49.464Z,1020.39
2016-12-24T04:29:58.772Z,1020.37
2016-12-24T04:31:08.096Z,1020.37
2016-12-24T04:32:16.804Z,1020.37
2016-12-24T04:33:25.798Z,1020.32
2016-12-24T04:34:34.492Z,1020.35
2016-12-24T04:35:43.181Z,1020.24
2016-12-24T04:36:51.980Z,1020.29
2016-12-24T04:38:00.972Z,1020.26
2016-12-24T04:39:09.977Z,1020.28
2016-12-24T04:40:18.664Z,1020.26
2016-12-24T04:41:27.968Z,1020.31
2016-12-24T04:42:36.987Z,1020.32
2016-12-24T04:43:45.983Z,1020.25
2016-12-24T04:44:54.678Z,1020.21
2016-12-24T04:46:03.984Z,1020.22
2016-12-24T04:47:12.662Z,1020.21
2016-12-24T04:48:21.705Z,1020.2
2016-12-24T04:49:30.395Z,1020.17
2016-12-24T04:50:39.388Z,1020.18
2016-12-24T04:51:48.082Z,1020.19
2016-12-24T04:52:56.774Z,1020.24
2016-12-24T04:54:05.853Z,1020.26
2016-12-24T04:55:15.156Z,1020.22
2016-12-24T04:56:24.158Z,1020.29
2016-12-24T04:57:33.142Z,1020.33
2016-12-24T04:58:42.150Z,1020.34
2016-12-24T04:59:51.316Z,1020.37
2016-12-24T05:01:00.618Z,1020.33
2016-12-24T05:02:09.924Z,1020.4
2016-12-24T05:03:19.231Z,1020.43
2016-12-24T05:04:27.925Z,1020.39
2016-12-24T05:05:37.271Z,1020.43
2016-12-24T05:06:46.257Z,1020.37
2016-12-24T05:07:55.254Z,1020.41
2016-12-24T05:09:04.552Z,1020.39
2016-12-24T05:10:13.544Z,1020.43
2016-12-24T05:11:22.881Z,1020.43
2016-12-24T05:12:32.807Z,1020.38
2016-12-24T05:13:42.107Z,1020.42
2016-12-24T05:14:51.110Z,1020.43
2016-12-24T05:16:00.102Z,1020.36
2016-12-24T05:17:09.141Z,1020.34
2016-12-24T05:18:17.819Z,1020.32
2016-12-24T05:19:26.820Z,1020.38
2016-12-24T05:20:36.153Z,1020.4
2016-12-24T05:21:45.151Z,1020.39
2016-12-24T05:22:53.841Z,1020.33
2016-12-24T05:24:02.836Z,1020.32
2016-12-24T05:25:11.848Z,1020.35
2016-12-24T05:26:20.848Z,1020.4
2016-12-24T05:27:29.853Z,1020.35
2016-12-24T05:28:38.700Z,1020.38
2016-12-24T05:29:47.688Z,1020.38
2016-12-24T05:30:56.682Z,1020.36
2016-12-24T05:32:05.372Z,1020.43
2016-12-24T05:33:14.063Z,1020.48
2016-12-24T05:34:23.238Z,1020.44
2016-12-24T05:35:32.243Z,1020.45
2016-12-24T05:36:41.546Z,1020.47
2016-12-24T05:37:50.851Z,1020.49
2016-12-24T05:38:59.842Z,1020.53
2016-12-24T05:40:09.557Z,1020.57
2016-12-24T05:41:18.560Z,1020.57
2016-12-24T05:42:27.561Z,1020.59
2016-12-24T05:43:36.855Z,1020.6
2016-12-24T05:44:45.853Z,1020.59
2016-12-24T05:45:54.858Z,1020.6
2016-12-24T05:47:04.162Z,1020.59
2016-12-24T05:48:13.161Z,1020.57
2016-12-24T05:49:22.163Z,1020.62
2016-12-24T05:50:31.166Z,1020.65
2016-12-24T05:51:39.853Z,1020.61
2016-12-24T05:52:48.535Z,1020.63
2016-12-24T05:53:57.530Z,1020.61
2016-12-24T05:55:06.843Z,1020.58
2016-12-24T05:56:15.835Z,1020.54
2016-12-24T05:57:25.130Z,1020.54
2016-12-24T05:58:34.113Z,1020.53
2016-12-24T05:59:43.409Z,1020.51
2016-12-24T06:00:52.737Z,1020.46
2016-12-24T06:02:01.727Z,1020.47
2016-12-24T06:03:10.869Z,1020.49
2016-12-24T06:04:19.616Z,1020.49
2016-12-24T06:05:28.295Z,1020.54
2016-12-24T06:06:37.305Z,1020.5
2016-12-24T06:07:46.609Z,1020.54
2016-12-24T06:08:55.960Z,1020.56
2016-12-24T06:10:04.947Z,1020.59
2016-12-24T06:11:13.955Z,1020.56
2016-12-24T06:12:22.639Z,1020.57
2016-12-24T06:13:31.666Z,1020.58
2016-12-24T06:14:41.255Z,1020.61
2016-12-24T06:15:50.559Z,1020.7
2016-12-24T06:16:59.889Z,1020.68
2016-12-24T06:18:08.896Z,1020.66
2016-12-24T06:19:18.207Z,1020.7
2016-12-24T06:20:27.365Z,1020.7
2016-12-24T06:21:36.054Z,1020.73
2016-12-24T06:22:45.048Z,1020.76
2016-12-24T06:23:53.729Z,1020.73
2016-12-24T06:25:02.409Z,1020.77
2016-12-24T06:26:11.746Z,1020.77
2016-12-24T06:27:20.764Z,1020.79
2016-12-24T06:28:29.758Z,1020.83
2016-12-24T06:29:38.441Z,1020.79
2016-12-24T06:30:47.755Z,1020.73
2016-12-24T06:31:56.895Z,1020.82
2016-12-24T06:33:06.191Z,1020.87
2016-12-24T06:34:15.795Z,1020.85
2016-12-24T06:35:24.789Z,1020.92
2016-12-24T06:36:33.789Z,1020.93
2016-12-24T06:37:42.476Z,1020.98
2016-12-24T06:38:51.159Z,1021.01
2016-12-24T06:40:00.182Z,1021.05
2016-12-24T06:41:09.787Z,1021.01
2016-12-24T06:42:18.779Z,1021
2016-12-24T06:43:28.235Z,1021
2016-12-24T06:44:37.578Z,1020.96
2016-12-24T06:45:46.256Z,1020.95
2016-12-24T06:46:55.863Z,1021.05
2016-12-24T06:48:05.465Z,1021.06
2016-12-24T06:49:14.814Z,1021.07
2016-12-24T06:50:23.804Z,1021.07
2016-12-24T06:51:32.513Z,1021.03
2016-12-24T06:52:42.427Z,1021.02
2016-12-24T06:53:51.424Z,1021.05
2016-12-24T06:55:00.459Z,1020.98
2016-12-24T06:56:09.150Z,1021.01
2016-12-24T06:57:18.450Z,1020.93
2016-12-24T06:58:27.450Z,1020.97
2016-12-24T06:59:36.136Z,1020.94
2016-12-24T07:00:45.118Z,1020.91
2016-12-24T07:01:54.121Z,1020.92
2016-12-24T07:03:02.830Z,1020.93
2016-12-24T07:04:11.523Z,1020.88
2016-12-24T07:05:20.220Z,1020.92
2016-12-24T07:06:29.980Z,1020.99
2016-12-24T07:07:38.723Z,1021.05
2016-12-24T07:08:47.406Z,1021.15
2016-12-24T07:09:56.403Z,1021.14
2016-12-24T07:11:05.391Z,1021.17
2016-12-24T07:12:15.047Z,1021.1
2016-12-24T07:13:23.753Z,1021.16
2016-12-24T07:14:32.762Z,1021.24
2016-12-24T07:15:41.775Z,1021.16
2016-12-24T07:16:50.801Z,1021.23
2016-12-24T07:17:59.941Z,1021.19
2016-12-24T07:19:09.238Z,1021.21
2016-12-24T07:20:18.535Z,1021.11
2016-12-24T07:21:27.529Z,1021.07
2016-12-24T07:22:36.209Z,1021.04
2016-12-24T07:23:45.868Z,1020.98
2016-12-24T07:24:54.862Z,1021.02
2016-12-24T07:26:03.573Z,1021.08
2016-12-24T07:27:12.880Z,1021.07
2016-12-24T07:28:21.882Z,1021.07
2016-12-24T07:29:30.556Z,1021.03
2016-12-24T07:30:39.548Z,1021.05
2016-12-24T07:31:48.536Z,1021.08
2016-12-24T07:32:57.540Z,1021.1
2016-12-24T07:34:06.535Z,1021.13
2016-12-24T07:35:16.321Z,1021.13
2016-12-24T07:36:25.085Z,1021.19
2016-12-24T07:37:34.084Z,1021.16
2016-12-24T07:38:42.791Z,1021.15
2016-12-24T07:39:51.782Z,1021.11
2016-12-24T07:41:00.463Z,1021.07
2016-12-24T07:42:09.150Z,1021.06
2016-12-24T07:43:18.458Z,1021.07
2016-12-24T07:44:27.762Z,1021.13
2016-12-24T07:45:37.696Z,1021.12
2016-12-24T07:46:46.534Z,1021.1
2016-12-24T07:47:55.880Z,1021.07
2016-12-24T07:49:04.570Z,1021.11
2016-12-24T07:50:13.253Z,1021.1
2016-12-24T07:51:22.241Z,1021.14
2016-12-24T07:52:31.831Z,1021.14
2016-12-24T07:53:41.447Z,1021.15
2016-12-24T07:54:50.991Z,1021.15
2016-12-24T07:56:00.406Z,1021.16
2016-12-24T07:57:09.238Z,1021.06
2016-12-24T07:58:18.022Z,1021.08
2016-12-24T07:59:27.588Z,1020.98
2016-12-24T08:00:36.452Z,1020.98
2016-12-24T08:01:46.568Z,1020.86
2016-12-24T08:02:56.570Z,1020.84
2016-12-24T08:04:05.506Z,1020.77
2016-12-24T08:05:14.559Z,1020.76
2016-12-24T08:06:23.556Z,1020.7
2016-12-24T08:07:32.851Z,1020.69
2016-12-24T08:08:41.842Z,1020.67
2016-12-24T08:09:51.300Z,1020.67
2016-12-24T08:11:00.609Z,1020.67
2016-12-24T08:12:09.599Z,1020.74
2016-12-24T08:13:18.607Z,1020.69
2016-12-24T08:14:27.334Z,1020.73
2016-12-24T08:15:36.034Z,1020.72
2016-12-24T08:16:45.037Z,1020.68
2016-12-24T08:17:54.345Z,1020.71
2016-12-24T08:19:03.664Z,1020.68
2016-12-24T08:20:12.663Z,1020.65
2016-12-24T08:21:22.013Z,1020.68
2016-12-24T08:22:31.009Z,1020.68
2016-12-24T08:23:40.630Z,1020.69
2016-12-24T08:24:49.939Z,1020.67
2016-12-24T08:25:58.623Z,1020.73
2016-12-24T08:27:08.021Z,1020.65
2016-12-24T08:28:17.655Z,1020.65
2016-12-24T08:29:26.652Z,1020.66
2016-12-24T08:30:35.994Z,1020.75
2016-12-24T08:31:45.676Z,1020.84
2016-12-24T08:32:55.095Z,1020.87
2016-12-24T08:34:03.789Z,1020.89
2016-12-24T08:35:13.482Z,1020.96
2016-12-24T08:36:22.489Z,1021.08
2016-12-24T08:37:31.183Z,1021.14
2016-12-24T08:38:39.894Z,1021.18
2016-12-24T08:39:49.198Z,1021.15
2016-12-24T08:40:58.820Z,1021.11
2016-12-24T08:42:07.811Z,1021.11
2016-12-24T08:43:17.109Z,1021.09
2016-12-24T08:44:25.908Z,1021.06
2016-12-24T08:45:34.600Z,1021.06
2016-12-24T08:46:43.599Z,1021.02
2016-12-24T08:47:52.901Z,1021.04
2016-12-24T08:49:02.206Z,1021.13
2016-12-24T08:50:11.524Z,1021.23
2016-12-24T08:51:20.574Z,1021.37
2016-12-24T08:52:29.574Z,1021.41
2016-12-24T08:53:38.872Z,1021.41
2016-12-24T08:54:47.891Z,1021.5
2016-12-24T08:55:57.229Z,1021.52
2016-12-24T08:57:05.927Z,1021.58
2016-12-24T08:58:14.607Z,1021.63
2016-12-24T08:59:23.621Z,1021.51
2016-12-24T09:00:32.621Z,1021.39
2016-12-24T09:01:41.378Z,1021.45
2016-12-24T09:02:51.013Z,1021.47
2016-12-24T09:04:00.007Z,1021.44
2016-12-24T09:05:09.002Z,1021.41
2016-12-24T09:06:17.997Z,1021.47
2016-12-24T09:07:27.480Z,1021.62
2016-12-24T09:08:37.125Z,1021.74
2016-12-24T09:09:46.753Z,1021.76
2016-12-24T09:10:55.433Z,1021.8
2016-12-24T09:12:04.434Z,1021.86
2016-12-24T09:13:13.844Z,1021.86
2016-12-24T09:14:22.535Z,1021.85
2016-12-24T09:15:31.539Z,1021.9
2016-12-24T09:16:40.269Z,1021.95
2016-12-24T09:17:49.269Z,1021.97
2016-12-24T09:18:58.723Z,1022.05
2016-12-24T09:20:07.730Z,1022.05
2016-12-24T09:21:17.024Z,1022.05
2016-12-24T09:22:26.021Z,1022.05
2016-12-24T09:23:35.065Z,1022.08
2016-12-24T09:24:44.051Z,1022.14
2016-12-24T09:25:53.067Z,1022.11
2016-12-24T09:27:01.764Z,1022.09
2016-12-24T09:28:10.796Z,1022.02
2016-12-24T09:29:19.812Z,1021.92
2016-12-24T09:30:28.547Z,1021.71
2016-12-24T09:31:37.556Z,1021.58
2016-12-24T09:32:47.165Z,1021.55
2016-12-24T09:33:56.471Z,1021.62
2016-12-24T09:35:05.471Z,1021.71
2016-12-24T09:36:15.124Z,1021.77
2016-12-24T09:37:23.882Z,1021.84
2016-12-24T09:38:32.882Z,1021.85
2016-12-24T09:39:41.573Z,1021.87
2016-12-24T09:40:51.422Z,1021.86
2016-12-24T09:42:01.645Z,1021.89
2016-12-24T09:43:10.966Z,1021.87
2016-12-24T09:44:19.660Z,1021.82
2016-12-24T09:45:29.303Z,1021.82
2016-12-24T09:46:38.617Z,1021.73
2016-12-24T09:47:47.928Z,1021.79
2016-12-24T09:48:57.238Z,1021.72
2016-12-24T09:50:06.547Z,1021.67
2016-12-24T09:51:15.546Z,1021.68
2016-12-24T09:52:24.547Z,1021.84
2016-12-24T09:53:34.328Z,1021.84
2016-12-24T09:54:43.327Z,1021.82
2016-12-24T09:55:52.626Z,1021.75
2016-12-24T09:57:01.665Z,1021.65
2016-12-24T09:58:11.297Z,1021.68
2016-12-24T09:59:19.987Z,1021.57
2016-12-24T10:00:29.294Z,1021.5
2016-12-24T10:01:38.915Z,1021.43
2016-12-24T10:02:47.907Z,1021.36
2016-12-24T10:03:57.821Z,1021.35
2016-12-24T10:05:06.815Z,1021.38
2016-12-24T10:06:16.111Z,1021.4
2016-12-24T10:07:25.420Z,1021.43
2016-12-24T10:08:35.039Z,1021.4
2016-12-24T10:09:43.721Z,1021.49
2016-12-24T10:10:52.867Z,1021.5
2016-12-24T10:12:02.172Z,1021.52
2016-12-24T10:13:10.860Z,1021.5
2016-12-24T10:14:19.552Z,1021.5
2016-12-24T10:15:28.847Z,1021.49
2016-12-24T10:16:38.196Z,1021.55
2016-12-24T10:17:48.141Z,1021.63
2016-12-24T10:18:57.137Z,1021.64
2016-12-24T10:20:06.136Z,1021.73
2016-12-24T10:21:15.120Z,1021.72
2016-12-24T10:22:24.466Z,1021.74
2016-12-24T10:23:33.148Z,1021.67
2016-12-24T10:24:42.146Z,1021.72
2016-12-24T10:25:51.465Z,1021.71
2016-12-24T10:27:00.150Z,1021.64
2016-12-24T10:28:09.553Z,1021.73
2016-12-24T10:29:18.855Z,1021.76
2016-12-24T10:30:28.155Z,1021.87
2016-12-24T10:31:37.464Z,1021.85
2016-12-24T10:32:46.464Z,1021.84
2016-12-24T10:33:55.299Z,1021.73
2016-12-24T10:35:04.005Z,1021.7
2016-12-24T10:36:13.065Z,1021.66
2016-12-24T10:37:21.858Z,1021.61
2016-12-24T10:38:31.175Z,1021.73
2016-12-24T10:39:40.321Z,1021.88
2016-12-24T10:40:49.936Z,1021.82
2016-12-24T10:41:59.262Z,1021.86
2016-12-24T10:43:08.261Z,1021.8
2016-12-24T10:44:16.941Z,1021.78
2016-12-24T10:45:26.095Z,1021.83
2016-12-24T10:46:34.886Z,1021.78
2016-12-24T10:47:43.579Z,1021.8
2016-12-24T10:48:52.268Z,1021.82
2016-12-24T10:50:00.990Z,1021.85
2016-12-24T10:51:10.341Z,1021.75
2016-12-24T10:52:19.031Z,1021.65
2016-12-24T10:53:28.027Z,1021.77
2016-12-24T10:54:37.025Z,1021.71
2016-12-24T10:55:46.023Z,1021.84
2016-12-24T10:56:56.030Z,1021.69
2016-12-24T10:58:05.334Z,1021.72
2016-12-24T10:59:14.331Z,1021.71
2016-12-24T11:00:23.325Z,1021.68
2016-12-24T11:01:32.640Z,1021.68
2016-12-24T11:02:42.031Z,1021.66
2016-12-24T11:03:50.732Z,1021.63
2016-12-24T11:04:59.417Z,1021.62
2016-12-24T11:06:08.721Z,1021.59
2016-12-24T11:07:17.742Z,1021.61
2016-12-24T11:08:27.700Z,1021.5
2016-12-24T11:09:36.696Z,1021.45
2016-12-24T11:10:45.689Z,1021.45
2016-12-24T11:11:54.696Z,1021.47
2016-12-24T11:13:03.713Z,1021.44
2016-12-24T11:14:12.751Z,1021.49
2016-12-24T11:15:21.739Z,1021.53
2016-12-24T11:16:30.734Z,1021.57
2016-12-24T11:17:39.737Z,1021.53
2016-12-24T11:18:48.725Z,1021.51
2016-12-24T11:19:57.841Z,1021.59
2016-12-24T11:21:06.572Z,1021.62
2016-12-24T11:22:15.878Z,1021.63
2016-12-24T11:23:24.867Z,1021.63
2016-12-24T11:24:33.557Z,1021.59
2016-12-24T11:25:42.557Z,1021.67
2016-12-24T11:26:51.860Z,1021.58
2016-12-24T11:28:00.864Z,1021.6
2016-12-24T11:29:10.168Z,1021.67
2016-12-24T11:30:19.183Z,1021.69
2016-12-24T11:31:28.250Z,1021.82
2016-12-24T11:32:37.275Z,1021.7
2016-12-24T11:33:46.592Z,1021.67
2016-12-24T11:34:55.588Z,1021.64
2016-12-24T11:36:04.609Z,1021.57
2016-12-24T11:37:13.929Z,1021.6
2016-12-24T11:38:22.926Z,1021.65
2016-12-24T11:39:31.914Z,1021.69
2016-12-24T11:40:40.603Z,1021.67
2016-12-24T11:41:49.298Z,1021.72
2016-12-24T11:42:58.632Z,1021.75
2016-12-24T11:44:07.336Z,1021.75
2016-12-24T11:45:16.025Z,1021.7
2016-12-24T11:46:24.716Z,1021.71
2016-12-24T11:47:33.402Z,1021.78
2016-12-24T11:48:42.714Z,1021.76
2016-12-24T11:49:51.705Z,1021.82
2016-12-24T11:51:01.017Z,1021.78
2016-12-24T11:52:10.011Z,1021.83
2016-12-24T11:53:19.009Z,1021.79
2016-12-24T11:54:28.352Z,1021.85
2016-12-24T11:55:37.356Z,1021.92
2016-12-24T11:56:46.371Z,1021.87
2016-12-24T11:57:55.056Z,1021.84
2016-12-24T11:59:04.058Z,1021.89
2016-12-24T12:00:13.092Z,1021.89
2016-12-24T12:01:22.399Z,1021.99
2016-12-24T12:02:31.728Z,1022.03
2016-12-24T12:03:41.023Z,1022.08
2016-12-24T12:04:50.627Z,1022.04
2016-12-24T12:05:59.632Z,1022.05
2016-12-24T12:07:08.946Z,1022.09
2016-12-24T12:08:18.250Z,1022.08
2016-12-24T12:09:27.241Z,1022.12
2016-12-24T12:10:35.952Z,1022.09
2016-12-24T12:11:46.072Z,1022.07
2016-12-24T12:12:54.766Z,1022.03
2016-12-24T12:14:03.766Z,1022.06
2016-12-24T12:15:13.064Z,1022.05
2016-12-24T12:16:22.053Z,1022.02
2016-12-24T12:17:31.393Z,1022.02
2016-12-24T12:18:40.385Z,1021.97
2016-12-24T12:19:49.385Z,1021.98
2016-12-24T12:20:58.398Z,1022
2016-12-24T12:22:08.023Z,1021.98
2016-12-24T12:23:17.637Z,1022.02
2016-12-24T12:24:26.631Z,1021.97
2016-12-24T12:25:35.332Z,1021.95
2016-12-24T12:26:44.329Z,1021.97
2016-12-24T12:27:53.318Z,1021.95
2016-12-24T12:29:02.159Z,1021.98
2016-12-24T12:30:11.165Z,1022
2016-12-24T12:31:19.871Z,1021.93
2016-12-24T12:32:29.810Z,1021.84
2016-12-24T12:33:38.828Z,1021.83
2016-12-24T12:34:47.516Z,1021.73
2016-12-24T12:35:56.505Z,1021.72
2016-12-24T12:37:05.808Z,1021.73
2016-12-24T12:38:14.819Z,1021.73
2016-12-24T12:39:23.814Z,1021.7
2016-12-24T12:40:32.504Z,1021.7
2016-12-24T12:41:41.803Z,1021.74
2016-12-24T12:42:51.407Z,1021.65
2016-12-24T12:44:00.409Z,1021.7
2016-12-24T12:45:09.093Z,1021.61
2016-12-24T12:46:18.146Z,1021.54
2016-12-24T12:47:27.436Z,1021.56
2016-12-24T12:48:36.438Z,1021.53
2016-12-24T12:49:46.059Z,1021.52
2016-12-24T12:50:55.052Z,1021.57
2016-12-24T12:52:03.887Z,1021.45
2016-12-24T12:53:13.492Z,1021.54
2016-12-24T12:54:22.486Z,1021.55
2016-12-24T12:55:31.197Z,1021.54
2016-12-24T12:56:40.206Z,1021.62
2016-12-24T12:57:49.201Z,1021.48
2016-12-24T12:58:58.208Z,1021.51
2016-12-24T13:00:06.908Z,1021.54
2016-12-24T13:01:16.532Z,1021.56
2016-12-24T13:02:25.226Z,1021.56
2016-12-24T13:03:34.682Z,1021.51
2016-12-24T13:04:44.288Z,1021.46
2016-12-24T13:05:53.593Z,1021.46
2016-12-24T13:07:02.588Z,1021.51
2016-12-24T13:08:11.590Z,1021.49
2016-12-24T13:09:20.590Z,1021.49
2016-12-24T13:10:29.635Z,1021.5
2016-12-24T13:11:38.337Z,1021.55
2016-12-24T13:12:47.644Z,1021.55
2016-12-24T13:13:56.644Z,1021.54
2016-12-24T13:15:05.498Z,1021.56
2016-12-24T13:16:14.188Z,1021.47
2016-12-24T13:17:23.238Z,1021.54
2016-12-24T13:18:32.238Z,1021.52
2016-12-24T13:19:41.565Z,1021.62
2016-12-24T13:20:51.283Z,1021.57
2016-12-24T13:21:59.981Z,1021.6
2016-12-24T13:23:09.292Z,1021.55
2016-12-24T13:24:17.983Z,1021.62
2016-12-24T13:25:27.284Z,1021.67
2016-12-24T13:26:36.574Z,1021.64
2016-12-24T13:27:45.887Z,1021.74
2016-12-24T13:28:54.895Z,1021.83
2016-12-24T13:30:04.522Z,1021.76
2016-12-24T13:31:13.269Z,1021.75
2016-12-24T13:32:22.306Z,1021.74
2016-12-24T13:33:30.998Z,1021.72
2016-12-24T13:34:40.315Z,1021.7
2016-12-24T13:35:49.016Z,1021.77
2016-12-24T13:36:58.073Z,1021.74
2016-12-24T13:38:07.236Z,1021.75
2016-12-24T13:39:16.263Z,1021.76
2016-12-24T13:40:24.961Z,1021.73
2016-12-24T13:41:33.672Z,1021.8
2016-12-24T13:42:42.679Z,1021.77
2016-12-24T13:43:52.349Z,1021.76
2016-12-24T13:45:01.347Z,1021.77
2016-12-24T13:46:10.340Z,1021.79
2016-12-24T13:47:19.356Z,1021.78
2016-12-24T13:48:28.362Z,1021.74
2016-12-24T13:49:37.517Z,1021.73
2016-12-24T13:50:46.825Z,1021.73
2016-12-24T13:51:55.845Z,1021.69
2016-12-24T13:53:04.557Z,1021.66
2016-12-24T13:54:13.888Z,1021.68
2016-12-24T13:55:22.934Z,1021.71
2016-12-24T13:56:31.936Z,1021.79
2016-12-24T13:57:40.952Z,1021.78